Aérodrome :
LOGIN :

S'inscrire | Disclaimer

   EN    FR    IT 

 










Légende :    VFR   VFR Marginal   IFR   IFR Intensif   IFR Très Intensif
Visi : 
Plafond : 
>= 8 km
>= 3000ft
5 à 8 km
1000 à 3000 ft
1500m à 5 km
500 à 1000 ft
800 à 1500m
200 à 500 ft
< 800m
< 200 ft
Symboles :   Orages  Brouillard  Fortes neiges  Fortes précipitations  Vent > 20 kt
SIGMETs :   Divers  Orages  Givrage  Turbulence  Onde Orograph.  Cendres Volcan.







- Altitude de l'aérodrome : 83 ft
- Code IATA : LHR
- Voir les cartes d'approche


EGLL - London Heathrow

DERNIER METAR :
  • 211320Z AUTO VRB02KT 9999 OVC048 25/12 Q1014 NOSIG

METARs EXPIRÉS :
  • 211250Z AUTO 28006KT 240V320 9999 BKN047 25/12 Q1014 NOSIG
  • 211220Z AUTO VRB06KT 9999 SCT045 25/12 Q1014 NOSIG
  • 211150Z AUTO 31004KT 280V010 9999 SCT039 SCT049 24/13 Q1014 NOSIG
  • 211120Z AUTO 30006KT 260V360 9999 BKN037 BKN046 23/13 Q1014 NOSIG
  • 211050Z AUTO 29006KT 260V330 9999 FEW039 SCT048 23/13 Q1014 NOSIG

TAF TAF EGLL
Valide du 21 à 12h jusqu'au 22 à 18h UTC


211103Z 2112/2218 VRB03KT 9999 FEW035
PROB30
TEMPO 2114/2120 8000 SHRA
PROB30 2202/2208 6000
Pas de NOTAMs connus pour ce terrain.



MET'MAP, la Météo Aéronautique d'un coup d'oeil ! - Copyright ORBIFLY Décembre 2007 - Disclaimer

ORBIFLY MET'MAP TEAM :

Programmation & Développement : Alexandra Zaïnal
Conception & Développement : Baudouin d'Aumeries
Co-Programmation & Développement : Marc-Olivier Méhu
Soutien technique & logistique : Manuel Goepfert

Contact : metmap@orbifly.com




SOURCES & CREDITS :

   NOAA